createdAt,value
2023-01-13T00:02:08.564Z,1012.5433597067223
2023-01-13T00:07:04.784Z,1012.6050084500937
2023-01-13T00:12:01.060Z,1012.6417074403699
2023-01-13T00:16:57.304Z,1012.6882614539759
2023-01-13T00:21:54.560Z,1012.6895903323863
2023-01-13T00:26:51.984Z,1012.6617931279401
2023-01-13T00:31:49.103Z,1012.639229685131
2023-01-13T00:36:46.365Z,1012.5764327994387
2023-01-13T00:41:43.605Z,1012.5011408614617
2023-01-13T00:46:40.913Z,1012.6158900727681
2023-01-13T00:51:38.094Z,1012.6234518723464
2023-01-13T00:56:40.081Z,1012.6751726903623
2023-01-13T01:01:36.773Z,1012.615088760544
2023-01-13T01:06:36.870Z,1012.6730918722919
2023-01-13T01:11:34.151Z,1012.615922531235
2023-01-13T01:16:30.473Z,1012.6465314777497
2023-01-13T01:21:30.612Z,1012.6758401425366
2023-01-13T01:26:27.892Z,1012.6385258045891
2023-01-13T01:31:25.163Z,1012.591279766325
2023-01-13T01:36:22.406Z,1012.5461992002721
2023-01-13T01:41:19.649Z,1012.5513299007683
2023-01-13T01:46:15.975Z,1012.4864580282373
2023-01-13T01:51:12.243Z,1012.428922997839
2023-01-13T01:56:10.437Z,1012.414719638254
2023-01-13T02:01:06.888Z,1012.3697551154667
2023-01-13T02:06:02.972Z,1012.3572785516563
2023-01-13T02:11:00.216Z,1012.3033567689081
2023-01-13T02:16:06.471Z,1012.2524444923603
2023-01-13T02:21:17.684Z,1012.2059553759758
2023-01-13T02:26:29.902Z,1012.1640445013257
2023-01-13T02:31:32.193Z,1012.1505711656564
2023-01-13T02:36:37.394Z,1012.0694700265979
2023-01-13T02:41:38.609Z,1011.943682376958
2023-01-13T02:46:43.861Z,1011.9151171697981
2023-01-13T02:51:43.129Z,1011.89918624516
2023-01-13T02:56:41.365Z,1011.9491739144697
2023-01-13T03:01:36.716Z,1011.9728471122554
2023-01-13T03:06:43.900Z,1011.9793446772155
2023-01-13T03:11:46.152Z,1011.9058187860626
2023-01-13T03:16:53.398Z,1011.9474306444914
2023-01-13T03:21:54.599Z,1011.9097002527167
2023-01-13T03:27:00.860Z,1011.9517604395043
2023-01-13T03:32:03.103Z,1012.0426401453856
2023-01-13T03:37:02.321Z,1012.1707839123037
2023-01-13T03:42:01.565Z,1012.0696318739798
2023-01-13T03:47:04.810Z,1012.1744339351998
2023-01-13T03:52:05.095Z,1012.2031067846614
2023-01-13T03:57:06.337Z,1012.1490078588097
2023-01-13T04:02:07.736Z,1012.099413496026
2023-01-13T04:07:12.823Z,1012.0816021802437
2023-01-13T04:12:14.061Z,1011.9591148085958
2023-01-13T04:17:10.303Z,1011.9141119324845
2023-01-13T04:22:06.589Z,1011.8574616756987
2023-01-13T04:27:02.858Z,1011.831576124091
2023-01-13T04:31:59.100Z,1011.9268483246769
2023-01-13T04:36:55.362Z,1011.8836073904336
2023-01-13T04:41:50.638Z,1011.9344158644226
2023-01-13T04:46:46.892Z,1011.9259717476374
2023-01-13T04:51:42.132Z,1011.8330320311233
2023-01-13T04:56:37.402Z,1011.804015332865
2023-01-13T05:01:33.876Z,1011.8097952475307
2023-01-13T05:06:29.937Z,1011.7829835391002
2023-01-13T05:11:26.175Z,1011.7326231374548
2023-01-13T05:16:22.511Z,1011.8755550184779
2023-01-13T05:21:18.704Z,1011.9564116130075
2023-01-13T05:26:13.957Z,1011.926271580091
2023-01-13T05:31:10.217Z,1011.9815053188141
2023-01-13T05:36:06.468Z,1012.0333168355487
2023-01-13T05:41:01.728Z,1011.9452986852101
2023-01-13T05:45:59.007Z,1011.9952119263575
2023-01-13T05:50:54.273Z,1012.0500977670795
2023-01-13T05:55:49.590Z,1012.009656211771
2023-01-13T06:00:45.781Z,1012.0682637738543
2023-01-13T06:05:42.064Z,1012.1072508098691
2023-01-13T06:10:39.284Z,1012.099985483551
2023-01-13T06:15:35.578Z,1012.1452057151622
2023-01-13T06:20:32.862Z,1012.1391720461376
2023-01-13T06:25:34.065Z,1012.0259077378172
2023-01-13T06:30:32.373Z,1012.082452263393
2023-01-13T06:40:37.789Z,1011.9976035549861
2023-01-13T06:45:33.083Z,1012.1227476817637
2023-01-13T06:50:29.357Z,1012.1426223539228
2023-01-13T06:55:25.571Z,1012.1646182151526
2023-01-13T07:00:22.870Z,1012.1260399800221
2023-01-13T07:05:19.093Z,1012.158826455789
2023-01-13T07:10:15.361Z,1011.9918021156109
2023-01-13T07:15:11.622Z,1012.0273032736985
2023-01-13T07:20:07.894Z,1012.0130261345329
2023-01-13T07:25:04.170Z,1012.0253865881317
2023-01-13T07:30:00.412Z,1012.069789385825
2023-01-13T07:34:55.687Z,1012.0200273268492
2023-01-13T07:39:51.942Z,1012.1145956232272
2023-01-13T07:44:48.212Z,1012.2002271146057
2023-01-13T07:49:43.467Z,1012.2525988137422
2023-01-13T07:54:41.080Z,1012.2497209399293
2023-01-13T07:59:37.060Z,1012.2859301572154
2023-01-13T08:04:33.223Z,1012.2750808399013
2023-01-13T08:09:28.499Z,1012.254041407707
2023-01-13T08:14:26.739Z,1012.2919524060268
2023-01-13T08:19:23.013Z,1012.2940336462758
2023-01-13T08:24:20.241Z,1012.2463735223942
2023-01-13T08:29:16.512Z,1012.2176287680048
2023-01-13T08:34:12.751Z,1012.1707989283354
2023-01-13T08:39:09.221Z,1012.268647356227
2023-01-13T08:44:05.265Z,1012.2846060557564
2023-01-13T08:49:01.565Z,1012.2750924943928
2023-01-13T08:53:56.843Z,1012.2832066166443
2023-01-13T08:58:53.075Z,1012.309610717561
2023-01-13T09:03:49.875Z,1012.3102442726107
2023-01-13T09:08:45.621Z,1012.2891988453504
2023-01-13T09:13:43.892Z,1012.391387638071
2023-01-13T09:18:40.085Z,1012.4220929502724
2023-01-13T09:23:36.349Z,1012.3687701205424
2023-01-13T09:28:32.607Z,1012.3571211358477
2023-01-13T09:33:28.900Z,1012.3054934061769
2023-01-13T09:38:25.176Z,1012.249099006633
2023-01-13T09:43:28.870Z,1012.1722808501992
2023-01-13T09:48:29.828Z,1012.153168284974
2023-01-13T09:53:28.908Z,1012.1185501496955
2023-01-13T09:58:25.168Z,1012.0011505200749
2023-01-13T10:08:37.640Z,1011.9336447269366
2023-01-13T10:13:38.917Z,1011.9473530692319
2023-01-13T10:18:44.080Z,1011.8581703887487
2023-01-13T10:22:46.607Z,1011.8030574371411
2023-01-13T10:27:48.738Z,1011.7539299402752
2023-01-13T10:32:47.008Z,1011.7432373677474
2023-01-13T10:37:53.274Z,1011.6426719623106
2023-01-13T10:42:55.514Z,1011.5677504410146
2023-01-13T10:47:58.737Z,1011.5182644005222
2023-01-13T10:52:58.964Z,1011.4314059978622
2023-01-13T10:57:56.249Z,1011.384562476838
2023-01-13T11:03:09.438Z,1011.2626300119445
2023-01-13T11:08:12.790Z,1011.2008120737654
2023-01-13T11:13:15.963Z,1011.0952875191044
2023-01-13T11:18:18.164Z,1011.159615484023
2023-01-13T11:23:18.542Z,1011.0957559802723
2023-01-13T11:28:20.706Z,1010.960698963867
2023-01-13T11:33:28.915Z,1010.9233511287213
2023-01-13T11:38:31.157Z,1010.9703428626194
2023-01-13T11:43:33.389Z,1010.8012809833755
2023-01-13T11:48:32.680Z,1010.7106472970154
2023-01-13T11:53:43.915Z,1010.6826957231277
2023-01-13T11:59:00.067Z,1010.5002445050559
2023-01-13T12:04:05.308Z,1010.4778931285518
2023-01-13T12:09:15.515Z,1010.4285999448199
2023-01-13T12:14:19.807Z,1010.5781523890121
2023-01-13T12:19:26.981Z,1010.6018460011672
2023-01-13T12:24:33.259Z,1010.6068095155954
2023-01-13T12:29:34.581Z,1010.4940861474685
2023-01-13T12:34:41.767Z,1010.4638060577265
2023-01-13T12:39:47.982Z,1010.3654868140037
2023-01-13T12:44:54.349Z,1010.3922068805755
2023-01-13T12:49:53.424Z,1010.2935507009195
2023-01-13T12:55:00.704Z,1010.3181424874721
2023-01-13T13:00:14.897Z,1010.3315435246291
2023-01-13T13:05:25.163Z,1010.2689855609768
2023-01-13T13:10:28.347Z,1010.3752340436399
2023-01-13T13:15:32.602Z,1010.4125328604325
2023-01-13T13:20:38.850Z,1010.4113812735851
2023-01-13T13:25:49.100Z,1010.3781829884049
2023-01-13T13:30:54.342Z,1010.3163982998472
2023-01-13T13:36:04.504Z,1010.3226065450028
2023-01-13T13:41:09.776Z,1010.3237552715764
2023-01-13T13:46:11.068Z,1010.3076811101607
2023-01-13T13:51:13.259Z,1010.206914617588
2023-01-13T13:56:16.180Z,1010.2765978514283
2023-01-13T14:01:20.918Z,1010.1925357648979
2023-01-13T14:06:21.957Z,1010.2694267203988
2023-01-13T14:11:23.219Z,1010.1145988766559
2023-01-13T14:16:20.455Z,1010.1285248031934
2023-01-13T14:21:23.685Z,1010.0422529178344
2023-01-13T14:26:23.922Z,1009.9400510182346
2023-01-13T14:31:20.209Z,1009.9548567492166
2023-01-13T14:36:30.454Z,1009.9683019689784
2023-01-13T14:41:27.627Z,1010.0647393514486
2023-01-13T14:46:31.938Z,1010.0047186322055
2023-01-13T14:51:30.116Z,1009.9950885041371
2023-01-13T14:56:37.369Z,1009.9457407468545
2023-01-13T15:01:42.759Z,1009.8903555312462
2023-01-13T15:06:45.854Z,1009.8404550074437
2023-01-13T15:11:47.071Z,1009.8351508426832
2023-01-13T15:16:46.355Z,1009.8575857620391
2023-01-13T15:21:42.598Z,1009.898147654877
2023-01-13T15:33:01.949Z,1009.9527843917001
2023-01-13T15:37:58.215Z,1010.0654101600921
2023-01-13T15:42:54.432Z,1010.029273759356
2023-01-13T15:47:51.686Z,1010.0543678430123
2023-01-13T15:52:54.899Z,1010.0234244866446
2023-01-13T15:57:56.350Z,1009.8512077465913
2023-01-13T16:02:52.520Z,1009.789397965411
2023-01-13T16:07:50.690Z,1009.7612146435193
2023-01-13T16:12:55.939Z,1009.6188642516423
2023-01-13T16:17:55.205Z,1009.7670251068366
2023-01-13T16:22:52.486Z,1009.7421328827678
2023-01-13T16:27:54.712Z,1009.6895117361797
2023-01-13T16:32:50.989Z,1009.7012204494769
2023-01-13T16:37:51.246Z,1009.6499145547413
2023-01-13T16:42:51.890Z,1009.5887451969097
2023-01-13T16:47:48.822Z,1009.5475288485236
2023-01-13T16:52:45.071Z,1009.5820119344812
2023-01-13T16:57:43.310Z,1009.7126685482316
2023-01-13T17:02:42.507Z,1009.7407233005517
2023-01-13T17:07:39.809Z,1009.7277252482372
2023-01-13T17:12:36.005Z,1009.7414766083622
2023-01-13T17:17:32.292Z,1009.7618775109504
2023-01-13T17:22:28.583Z,1009.7965302861002
2023-01-13T17:27:25.807Z,1009.7396275191926
2023-01-13T17:32:26.100Z,1009.7912758745144
2023-01-13T17:37:22.372Z,1009.8264035574394
2023-01-13T17:42:19.657Z,1009.9513266015674
2023-01-13T17:47:16.524Z,1009.8767323694115
2023-01-13T17:52:13.118Z,1009.8538381395
2023-01-13T17:57:09.334Z,1009.9498001475312
2023-01-13T18:02:06.931Z,1010.0466012063616
2023-01-13T18:07:04.726Z,1009.9340917119631
2023-01-13T18:12:01.113Z,1009.9709216457226
2023-01-13T18:17:02.464Z,1009.9421150595973
2023-01-13T18:21:58.635Z,1009.9735471110165
2023-01-13T18:26:54.995Z,1009.9490250499376
2023-01-13T18:31:51.173Z,1009.948528821537
2023-01-13T18:36:49.376Z,1010.0076824844256
2023-01-13T18:41:45.653Z,1010.0148139614015
2023-01-13T18:46:41.964Z,1009.930632175422
2023-01-13T18:51:38.333Z,1009.9424200016837
2023-01-13T18:56:34.448Z,1009.8960603315162
2023-01-13T19:01:32.815Z,1009.8603245205428
2023-01-13T19:06:33.758Z,1009.8357641221718
2023-01-13T19:11:34.246Z,1009.9297814198134
2023-01-13T19:16:36.522Z,1009.8812798939622
2023-01-13T19:21:32.762Z,1009.9301074711741
2023-01-13T19:26:29.970Z,1009.8733182615605
2023-01-13T19:31:31.268Z,1009.9513745950139
2023-01-13T19:36:27.452Z,1009.8911383390866
2023-01-13T19:41:24.715Z,1009.9562908707156
2023-01-13T19:46:22.215Z,1010.0236763060682
2023-01-13T19:51:19.258Z,1009.9838622017804
2023-01-13T19:56:16.529Z,1010.000393589975
2023-01-13T20:01:12.830Z,1010.1301371672051
2023-01-13T20:06:09.037Z,1010.1579267422147
2023-01-13T20:11:05.271Z,1010.225928154929
2023-01-13T20:16:04.508Z,1010.2525296529899
2023-01-13T20:21:05.795Z,1010.2702643068446
2023-01-13T20:26:02.048Z,1010.3302373479797
2023-01-13T20:30:59.571Z,1010.3276987695979
2023-01-13T20:35:56.603Z,1010.3083272139207
2023-01-13T20:40:57.796Z,1010.3227519125039
2023-01-13T20:45:55.081Z,1010.3499938831961
2023-01-13T20:50:52.334Z,1010.3611314810474
2023-01-13T21:00:59.968Z,1010.2968645191536
2023-01-13T21:05:57.092Z,1010.2613116388306
2023-01-13T21:10:58.324Z,1010.2080642863132
2023-01-13T21:15:54.558Z,1010.1056133214174
2023-01-13T21:20:50.838Z,1010.181314340728
2023-01-13T21:25:51.096Z,1010.1518389591758
2023-01-13T21:30:47.361Z,1010.1863169004023
2023-01-13T21:35:43.644Z,1010.319428826091
2023-01-13T21:40:40.856Z,1010.4079522936061
2023-01-13T21:45:38.204Z,1010.5078866808087
2023-01-13T21:50:41.389Z,1010.594242133621
2023-01-13T21:55:37.617Z,1010.7275392321551
2023-01-13T22:00:33.899Z,1010.721758704188
2023-01-13T22:05:30.158Z,1010.7459337619106
2023-01-13T22:10:28.403Z,1010.7360836520934
2023-01-13T22:15:24.941Z,1010.8703137571241
2023-01-13T22:20:20.928Z,1010.8921202005024
2023-01-13T22:25:18.165Z,1010.9187440000496
2023-01-13T22:30:15.444Z,1010.9319237973657
2023-01-13T22:35:12.665Z,1010.8861920837479
2023-01-13T22:40:09.986Z,1010.8016829698025
2023-01-13T22:45:06.213Z,1010.8580741288866
2023-01-13T22:50:02.554Z,1010.7689710440417
2023-01-13T22:54:58.707Z,1010.7669652675349
2023-01-13T22:59:54.998Z,1010.7371633692561
2023-01-13T23:04:51.352Z,1010.700559772653
2023-01-13T23:09:47.511Z,1010.6846592667517
2023-01-13T23:14:43.757Z,1010.7119303662382
2023-01-13T23:19:41.042Z,1010.8159281984705
2023-01-13T23:24:37.286Z,1010.8470876789953
2023-01-13T23:29:35.522Z,1010.940706719662
2023-01-13T23:34:31.776Z,1011.0250407050107
2023-01-13T23:39:30.225Z,1011.0205387940593
2023-01-13T23:44:31.290Z,1010.9984613790475
2023-01-13T23:49:27.543Z,1010.9590240307346
2023-01-13T23:54:23.803Z,1010.9063192310294
2023-01-13T23:59:20.103Z,1010.9404964007713
